Time;durP1;ratioP1;P1;durP2;ratioP2;P2;SDS_P1;SDS_P2;PMS_P1;PMS_P2;Temp;Humidity;BMP_temperature;BMP_pressure;BME280_temperature;BME280_humidity;BME280_pressure;Samples;Min_cycle;Max_cycle;Signal;HPM_P1;HPM_P2
2021/12/17 00:01:05;;;;;;;16.97;15.13;;;6.80;99.90;;;;;;5013580;28;20419;-58
2021/12/17 00:04:03;;;;;;;18.47;14.53;;;6.80;99.90;;;;;;5013032;28;20478;-58
2021/12/17 00:08:51;;;;;;;17.07;14.67;;;6.90;99.90;;;;;;5033096;28;20434;-58
2021/12/17 00:11:18;;;;;;;19.20;15.20;;;6.90;99.90;;;;;;5032944;28;20426;-55
2021/12/17 00:13:45;;;;;;;15.17;13.07;;;7.00;99.90;;;;;;5033177;28;20553;-55
2021/12/17 00:16:16;;;;;;;19.33;15.27;;;7.00;99.90;;;;;;5024447;28;20471;-56
2021/12/17 00:49:08;;;;;;;19.90;16.93;;;7.10;99.90;;;;;;4991015;28;20412;-53
2021/12/17 00:54:21;;;;;;;20.90;16.97;;;7.10;99.90;;;;;;5013054;28;20195;-58
2021/12/17 00:56:48;;;;;;;22.10;18.40;;;7.10;99.90;;;;;;5013149;28;20482;-58
2021/12/17 00:59:14;;;;;;;21.77;17.67;;;7.10;99.90;;;;;;5016124;28;20960;-58
2021/12/17 01:01:40;;;;;;;20.47;17.03;;;7.20;99.90;;;;;;5016177;28;20486;-56
2021/12/17 01:04:05;;;;;;;20.83;18.50;;;7.30;99.90;;;;;;5016109;28;20180;-57
2021/12/17 01:06:31;;;;;;;22.63;17.07;;;7.40;99.90;;;;;;5016348;28;20196;-56
2021/12/17 01:08:57;;;;;;;21.40;18.03;;;7.40;99.90;;;;;;5016337;28;20182;-56
2021/12/17 01:11:24;;;;;;;18.27;15.90;;;7.40;99.90;;;;;;5016551;28;20590;-58
2021/12/17 01:13:50;;;;;;;18.43;16.30;;;7.40;99.90;;;;;;5016588;28;20195;-56
2021/12/17 01:16:16;;;;;;;20.80;15.70;;;7.30;99.90;;;;;;5016241;28;20964;-58
2021/12/17 01:42:42;;;;;;;19.10;16.40;;;7.60;99.90;;;;;;5016023;28;20381;-57
2021/12/17 01:45:08;;;;;;;21.07;17.30;;;7.30;99.90;;;;;;5015610;28;20430;-58
2021/12/17 01:47:35;;;;;;;25.27;19.43;;;7.10;99.90;;;;;;5015544;28;20190;-58
2021/12/17 01:56:04;;;;;;;25.67;19.00;;;6.90;99.90;;;;;;5015554;28;20450;-58
2021/12/17 02:01:15;;;;;;;25.50;21.10;;;6.90;99.90;;;;;;5015616;28;20741;-58
2021/12/17 02:03:41;;;;;;;26.37;19.00;;;6.70;99.90;;;;;;5015057;28;20404;-58
2021/12/17 02:06:07;;;;;;;24.60;18.90;;;6.80;99.90;;;;;;5015273;28;20434;-56
2021/12/17 02:08:33;;;;;;;20.90;16.70;;;7.00;99.90;;;;;;5016353;28;20207;-58
2021/12/17 02:11:49;;;;;;;24.00;18.60;;;7.10;99.90;;;;;;5015280;28;20202;-53
2021/12/17 02:19:45;;;;;;;23.93;20.93;;;7.30;99.90;;;;;;5015156;28;20383;-58
2021/12/17 02:32:58;;;;;;;21.03;17.30;;;7.40;99.90;;;;;;4998875;28;20412;-53
2021/12/17 02:35:34;;;;;;;19.30;16.27;;;7.40;99.90;;;;;;5014593;28;20466;-56
2021/12/17 02:38:01;;;;;;;17.70;14.90;;;7.50;99.90;;;;;;5015009;28;20169;-56
2021/12/17 02:45:32;;;;;;;19.80;15.43;;;7.60;99.90;;;;;;5014729;28;20425;-58
2021/12/17 02:48:14;;;;;;;19.50;16.43;;;7.60;99.90;;;;;;5014185;28;20394;-58
2021/12/17 02:50:44;;;;;;;18.33;15.47;;;7.60;99.90;;;;;;5014454;28;20406;-56
2021/12/17 02:53:11;;;;;;;24.07;19.90;;;7.70;99.90;;;;;;5014974;28;20445;-58
2021/12/17 02:55:40;;;;;;;21.30;16.23;;;7.70;99.90;;;;;;5014331;28;20465;-58
2021/12/17 02:58:07;;;;;;;20.20;17.40;;;7.80;99.90;;;;;;5014499;28;20757;-57
2021/12/17 03:00:35;;;;;;;19.17;16.23;;;7.70;99.90;;;;;;5014239;28;20410;-58
2021/12/17 03:03:03;;;;;;;21.87;17.37;;;7.80;99.90;;;;;;5014232;28;20406;-58
2021/12/17 03:05:29;;;;;;;18.30;16.33;;;7.80;99.90;;;;;;5014114;28;20856;-58
2021/12/17 03:07:56;;;;;;;22.57;17.13;;;7.90;99.90;;;;;;5014051;28;20489;-56
2021/12/17 03:10:23;;;;;;;22.20;18.87;;;7.80;99.90;;;;;;5014318;28;20417;-58
2021/12/17 03:12:53;;;;;;;19.60;17.17;;;7.80;99.90;;;;;;5014039;28;20974;-54
2021/12/17 03:15:30;;;;;;;22.17;17.80;;;7.80;99.90;;;;;;5024613;23;20987;-59
2021/12/17 03:18:54;;;;;;;21.90;17.40;;;7.80;99.90;;;;;;4986880;28;20411;-59
2021/12/17 03:23:41;;;;;;;23.33;17.80;;;7.90;99.90;;;;;;4994386;28;20412;-57
2021/12/17 03:26:06;;;;;;;19.60;17.47;;;7.90;99.90;;;;;;4994486;28;20504;-59
2021/12/17 03:28:33;;;;;;;19.93;17.00;;;7.90;99.90;;;;;;4994244;28;20441;-58
2021/12/17 03:31:00;;;;;;;21.27;17.40;;;7.80;99.90;;;;;;4993962;28;20199;-59
2021/12/17 03:33:26;;;;;;;21.30;18.10;;;7.80;99.90;;;;;;4993980;28;20767;-59
2021/12/17 03:35:52;;;;;;;24.80;17.70;;;7.70;99.90;;;;;;4994254;28;20460;-59
2021/12/17 03:38:18;;;;;;;20.47;16.23;;;7.70;99.90;;;;;;4992691;28;20265;-59
2021/12/17 03:40:45;;;;;;;20.57;16.43;;;7.80;99.90;;;;;;4994079;28;20928;-59
2021/12/17 03:43:13;;;;;;;20.47;17.03;;;7.80;99.90;;;;;;4994028;28;20752;-58
2021/12/17 03:45:40;;;;;;;18.77;16.77;;;7.90;99.90;;;;;;4993796;28;20444;-59
2021/12/17 03:48:07;;;;;;;21.33;16.40;;;7.90;99.90;;;;;;4994373;28;20410;-59
2021/12/17 03:50:34;;;;;;;19.47;15.93;;;7.90;99.90;;;;;;4993768;28;20417;-59
2021/12/17 03:53:00;;;;;;;18.37;16.43;;;7.90;99.90;;;;;;4994028;28;20407;-58
2021/12/17 03:55:25;;;;;;;18.73;15.03;;;7.90;99.90;;;;;;4993863;28;20816;-58
2021/12/17 03:57:51;;;;;;;21.17;18.00;;;8.00;99.90;;;;;;4994151;28;20203;-58
2021/12/17 04:00:17;;;;;;;21.83;17.20;;;7.90;99.90;;;;;;4993680;28;20198;-59
2021/12/17 04:02:44;;;;;;;17.67;14.80;;;7.90;99.90;;;;;;4994181;28;20159;-58
2021/12/17 04:05:09;;;;;;;19.33;16.60;;;7.90;99.90;;;;;;4993478;28;20187;-59
2021/12/17 04:07:35;;;;;;;18.17;15.47;;;7.80;99.90;;;;;;4992413;28;20513;-58
2021/12/17 04:10:02;;;;;;;21.90;17.43;;;7.70;99.90;;;;;;4993941;28;20204;-59
2021/12/17 04:15:06;;;;;;;17.10;15.30;;;7.70;99.90;;;;;;4979928;28;20477;-59
2021/12/17 04:17:41;;;;;;;17.70;13.97;;;7.60;99.90;;;;;;4993691;28;20481;-58
2021/12/17 04:20:07;;;;;;;18.97;15.97;;;7.70;99.90;;;;;;4993847;28;20388;-56
2021/12/17 04:22:32;;;;;;;16.90;14.60;;;7.70;99.90;;;;;;4994211;28;20414;-58
2021/12/17 04:24:58;;;;;;;20.77;16.80;;;7.60;99.90;;;;;;4993700;28;20907;-57
2021/12/17 04:27:24;;;;;;;18.90;14.90;;;7.70;99.90;;;;;;4993947;28;20543;-57
2021/12/17 04:29:51;;;;;;;19.00;16.53;;;7.60;99.90;;;;;;4993519;28;20255;-55
2021/12/17 04:32:17;;;;;;;18.87;16.80;;;7.60;99.90;;;;;;4996207;28;20167;-58
2021/12/17 04:34:43;;;;;;;17.57;15.70;;;7.60;99.90;;;;;;4997218;28;20453;-58
2021/12/17 04:37:08;;;;;;;20.10;16.43;;;7.70;99.90;;;;;;4997407;28;20527;-59
2021/12/17 04:39:35;;;;;;;20.43;17.53;;;7.70;99.90;;;;;;4997417;28;20161;-59
2021/12/17 04:42:06;;;;;;;18.67;15.77;;;7.80;99.90;;;;;;4997216;28;20250;-57
2021/12/17 04:44:35;;;;;;;21.10;16.30;;;7.80;99.90;;;;;;4997204;28;20805;-58
2021/12/17 04:57:46;;;;;;;17.77;15.27;;;7.80;99.90;;;;;;4997128;28;20399;-58
2021/12/17 05:00:17;;;;;;;18.23;15.50;;;7.70;99.90;;;;;;4996736;28;20417;-58
2021/12/17 05:02:47;;;;;;;22.07;15.90;;;7.90;99.90;;;;;;4997072;28;20475;-57
2021/12/17 05:05:14;;;;;;;17.97;15.17;;;7.90;99.90;;;;;;4996546;28;20520;-60
2021/12/17 05:07:47;;;;;;;18.47;15.63;;;7.90;99.90;;;;;;4997087;28;20413;-58
2021/12/17 05:23:12;;;;;;;20.40;16.80;;;8.00;99.90;;;;;;4997274;28;20406;-59
2021/12/17 05:25:37;;;;;;;18.50;14.83;;;8.00;99.90;;;;;;4996589;28;20789;-59
2021/12/17 05:28:03;;;;;;;17.63;15.57;;;8.00;99.90;;;;;;4996867;28;20178;-59
2021/12/17 05:30:31;;;;;;;19.57;16.10;;;8.00;99.90;;;;;;4996453;28;20171;-59
2021/12/17 05:32:58;;;;;;;16.30;14.60;;;8.00;99.90;;;;;;4996481;28;20713;-57
2021/12/17 05:35:25;;;;;;;18.80;15.27;;;8.10;99.90;;;;;;4995946;28;20455;-58
2021/12/17 05:37:50;;;;;;;18.33;16.50;;;8.00;99.90;;;;;;4996440;28;20430;-59
2021/12/17 05:40:16;;;;;;;20.80;16.80;;;8.00;99.90;;;;;;4996516;28;20444;-59
2021/12/17 05:42:43;;;;;;;17.00;14.87;;;8.00;99.90;;;;;;4996145;28;20194;-58
2021/12/17 05:45:32;;;;;;;18.50;16.30;;;8.00;99.90;;;;;;4995286;28;20435;-59
2021/12/17 05:48:00;;;;;;;17.13;14.70;;;8.00;99.90;;;;;;4996402;28;20795;-58
2021/12/17 05:50:25;;;;;;;15.87;13.70;;;8.00;99.90;;;;;;4995961;28;20405;-59
2021/12/17 05:52:51;;;;;;;16.97;15.27;;;8.00;99.90;;;;;;4995892;28;20411;-58
2021/12/17 05:55:17;;;;;;;18.13;13.93;;;7.90;99.90;;;;;;4996030;28;20199;-59
2021/12/17 05:57:42;;;;;;;17.27;15.40;;;7.90;99.90;;;;;;4996387;28;20251;-56
2021/12/17 06:00:09;;;;;;;17.50;15.20;;;7.90;99.90;;;;;;4995646;28;20176;-57
2021/12/17 06:02:34;;;;;;;21.43;16.60;;;8.00;99.90;;;;;;4995932;28;20226;-57
2021/12/17 06:05:00;;;;;;;18.90;15.43;;;8.00;99.90;;;;;;4987488;28;20523;-58
2021/12/17 06:07:30;;;;;;;17.17;14.50;;;8.00;99.90;;;;;;4975144;28;20180;-60
2021/12/17 06:10:02;;;;;;;18.40;14.73;;;8.00;99.90;;;;;;4983788;28;20259;-60
2021/12/17 06:12:28;;;;;;;19.63;16.70;;;8.00;99.90;;;;;;4976735;28;20906;-59
2021/12/17 06:14:54;;;;;;;18.03;16.13;;;8.00;99.90;;;;;;4982800;28;20480;-59
2021/12/17 06:17:20;;;;;;;17.47;14.60;;;8.00;99.90;;;;;;4996112;28;20520;-58
2021/12/17 06:19:46;;;;;;;17.63;15.50;;;8.00;99.90;;;;;;4995838;28;20254;-59
2021/12/17 06:22:12;;;;;;;19.37;15.20;;;8.00;99.90;;;;;;4996065;28;20418;-58
2021/12/17 06:24:37;;;;;;;20.23;15.50;;;8.00;99.90;;;;;;4996211;28;20779;-59
2021/12/17 06:27:03;;;;;;;21.23;15.33;;;8.00;99.90;;;;;;4995361;28;20435;-58
2021/12/17 06:29:29;;;;;;;22.93;17.27;;;8.00;99.90;;;;;;4995978;28;20175;-57
2021/12/17 06:31:55;;;;;;;16.43;14.63;;;7.90;99.90;;;;;;4995995;28;20778;-56
2021/12/17 06:34:20;;;;;;;17.07;14.67;;;8.00;99.90;;;;;;4995220;28;20282;-55
2021/12/17 06:36:46;;;;;;;18.33;14.70;;;8.00;99.90;;;;;;4995239;28;20159;-59
2021/12/17 06:39:12;;;;;;;15.77;13.30;;;8.00;99.90;;;;;;4995077;28;20221;-58
2021/12/17 06:41:38;;;;;;;17.17;15.33;;;8.00;99.90;;;;;;4995421;28;20172;-58
2021/12/17 06:44:06;;;;;;;16.10;14.40;;;8.10;99.90;;;;;;4995518;28;20211;-58
2021/12/17 06:46:51;;;;;;;17.17;14.37;;;8.10;99.90;;;;;;4995085;28;20414;-56
2021/12/17 06:49:30;;;;;;;17.80;15.50;;;8.10;99.90;;;;;;4994632;28;20764;-58
2021/12/17 07:10:29;;;;;;;18.47;15.70;;;8.00;99.90;;;;;;4994999;28;20447;-60
2021/12/17 07:21:24;;;;;;;16.37;14.67;;;8.00;99.90;;;;;;4994649;28;20393;-59
2021/12/17 07:24:25;;;;;;;17.17;14.80;;;8.10;99.90;;;;;;4994611;28;20408;-60
2021/12/17 07:35:13;;;;;;;17.10;12.70;;;8.10;99.90;;;;;;4993749;28;20198;-57
2021/12/17 07:39:43;;;;;;;14.03;11.90;;;7.90;99.90;;;;;;4994223;28;20971;-59
2021/12/17 07:42:09;;;;;;;16.27;13.47;;;8.00;99.90;;;;;;4994247;28;20218;-58
2021/12/17 07:44:35;;;;;;;14.37;12.87;;;8.10;99.90;;;;;;4994227;28;20442;-57
2021/12/17 07:47:01;;;;;;;13.37;11.07;;;8.10;99.90;;;;;;4994027;28;20776;-59
2021/12/17 07:49:27;;;;;;;12.93;11.50;;;8.00;99.90;;;;;;4993799;28;20422;-59
2021/12/17 07:51:52;;;;;;;12.70;11.30;;;7.90;99.90;;;;;;4994505;28;20403;-59
2021/12/17 07:54:19;;;;;;;12.57;10.37;;;7.90;99.90;;;;;;4993957;28;20191;-57
2021/12/17 07:56:45;;;;;;;11.37;8.60;;;7.90;99.90;;;;;;4994001;28;20599;-58
2021/12/17 07:59:13;;;;;;;11.67;9.10;;;7.90;99.90;;;;;;4994115;28;20453;-55
2021/12/17 08:01:39;;;;;;;9.90;8.10;;;7.90;99.90;;;;;;4993489;28;20406;-59
2021/12/17 08:04:07;;;;;;;9.73;8.73;;;8.00;99.90;;;;;;4988737;28;20849;-55
2021/12/17 08:06:34;;;;;;;10.97;9.13;;;8.20;99.90;;;;;;4974233;28;20462;-57
2021/12/17 08:09:00;;;;;;;10.60;9.50;;;8.20;99.90;;;;;;4974533;28;20412;-58
2021/12/17 08:11:27;;;;;;;9.43;8.40;;;8.20;99.90;;;;;;4974491;28;20876;-60
2021/12/17 08:13:56;;;;;;;9.60;8.27;;;8.20;99.90;;;;;;4974459;28;20407;-54
2021/12/17 08:29:45;;;;;;;9.80;8.60;;;8.20;99.90;;;;;;4974242;28;20439;-60
2021/12/17 08:32:10;;;;;;;11.07;9.97;;;8.20;99.90;;;;;;4972962;28;20401;-60
2021/12/17 08:34:37;;;;;;;9.73;8.73;;;8.10;99.90;;;;;;4973817;28;20444;-58
2021/12/17 08:37:03;;;;;;;10.33;9.33;;;8.10;99.90;;;;;;4973986;28;20165;-59
2021/12/17 08:39:29;;;;;;;9.93;8.90;;;8.00;99.90;;;;;;4974104;28;20424;-59
2021/12/17 08:41:55;;;;;;;9.70;8.40;;;8.00;99.90;;;;;;4974338;28;20598;-58
2021/12/17 08:44:22;;;;;;;8.73;7.83;;;8.00;99.90;;;;;;4976356;28;20993;-59
2021/12/17 08:46:48;;;;;;;9.40;8.50;;;7.90;99.90;;;;;;4993398;28;20168;-59
2021/12/17 08:49:14;;;;;;;11.70;10.03;;;7.90;99.90;;;;;;4993653;28;20431;-59
2021/12/17 08:51:42;;;;;;;10.43;9.43;;;8.00;99.90;;;;;;4993467;28;20437;-57
2021/12/17 08:54:08;;;;;;;11.77;9.63;;;7.90;99.90;;;;;;4993225;28;20398;-59
2021/12/17 08:56:36;;;;;;;11.00;9.30;;;7.90;99.90;;;;;;4993044;28;20484;-60
2021/12/17 08:59:05;;;;;;;9.70;8.70;;;7.80;99.90;;;;;;4993166;28;20409;-53
2021/12/17 09:01:30;;;;;;;9.43;7.97;;;7.80;99.90;;;;;;4992869;28;21017;-59
2021/12/17 09:03:57;;;;;;;8.70;7.27;;;7.80;99.90;;;;;;4993367;28;20476;-60
2021/12/17 09:06:26;;;;;;;8.60;7.80;;;7.80;99.90;;;;;;4992907;28;20695;-59
2021/12/17 09:08:54;;;;;;;8.50;7.07;;;7.60;99.90;;;;;;4992975;28;20412;-56
2021/12/17 09:11:22;;;;;;;8.53;7.63;;;7.60;99.90;;;;;;4993535;28;20898;-58
2021/12/17 09:13:48;;;;;;;9.70;8.27;;;7.70;99.90;;;;;;4991758;28;20476;-58
2021/12/17 09:16:14;;;;;;;7.83;7.13;;;7.70;99.90;;;;;;5045247;23;20532;-58
2021/12/17 09:18:39;;;;;;;7.87;7.07;;;7.70;99.90;;;;;;5033225;28;20171;-57
2021/12/17 09:21:05;;;;;;;8.00;7.10;;;7.80;99.90;;;;;;5035626;28;20407;-58
2021/12/17 09:23:31;;;;;;;7.17;6.40;;;7.70;99.90;;;;;;5035476;28;20665;-56
2021/12/17 09:25:56;;;;;;;10.60;8.40;;;7.60;99.90;;;;;;5035578;28;20189;-57
2021/12/17 09:28:22;;;;;;;7.67;6.87;;;7.50;99.90;;;;;;5035646;28;20650;-56
2021/12/17 09:30:48;;;;;;;8.07;7.27;;;7.60;99.90;;;;;;5035659;28;20208;-56
2021/12/17 09:33:13;;;;;;;8.83;7.93;;;7.70;99.90;;;;;;5035906;28;20639;-55
2021/12/17 09:35:39;;;;;;;10.23;7.37;;;7.60;99.90;;;;;;5035227;28;20455;-56
2021/12/17 09:38:05;;;;;;;9.60;7.20;;;7.60;99.90;;;;;;5035356;28;20188;-58
2021/12/17 09:40:31;;;;;;;9.73;6.93;;;7.80;99.90;;;;;;5035497;28;20406;-56
2021/12/17 09:42:56;;;;;;;12.93;7.70;;;7.90;99.90;;;;;;5036118;28;20218;-58
2021/12/17 09:45:22;;;;;;;8.57;7.67;;;7.90;99.90;;;;;;5034879;28;20248;-56
2021/12/17 09:47:48;;;;;;;11.70;7.50;;;8.00;99.90;;;;;;5035665;28;20648;-54
2021/12/17 09:50:17;;;;;;;7.00;6.30;;;7.90;99.90;;;;;;5035183;28;20627;-56
2021/12/17 09:52:43;;;;;;;10.83;7.43;;;7.80;99.90;;;;;;5035390;28;20408;-58
2021/12/17 09:55:09;;;;;;;6.93;6.00;;;7.80;99.90;;;;;;5034059;28;20867;-57
2021/12/17 09:57:36;;;;;;;8.63;7.27;;;7.80;99.90;;;;;;5017599;28;20185;-58
2021/12/17 10:00:23;;;;;;;9.57;8.57;;;7.90;99.90;;;;;;5015302;28;20764;-57
2021/12/17 10:02:50;;;;;;;11.17;8.20;;;8.00;99.90;;;;;;5015688;28;20417;-56
2021/12/17 10:05:28;;;;;;;10.63;8.73;;;8.10;99.90;;;;;;5014934;28;20527;-57
2021/12/17 10:08:00;;;;;;;7.50;6.80;;;8.20;99.90;;;;;;5015634;28;20402;-58
2021/12/17 10:10:34;;;;;;;8.43;7.60;;;8.20;99.90;;;;;;5015370;28;20390;-54
2021/12/17 10:13:13;;;;;;;8.80;7.90;;;8.30;99.90;;;;;;5015175;28;20835;-58
2021/12/17 10:15:46;;;;;;;7.77;7.10;;;8.30;99.90;;;;;;5023653;28;20468;-58
2021/12/17 10:18:13;;;;;;;7.83;7.03;;;8.30;99.90;;;;;;5035220;28;20791;-58
2021/12/17 10:20:59;;;;;;;8.53;7.20;;;8.40;99.90;;;;;;5034731;28;20483;-57
2021/12/17 10:23:28;;;;;;;8.20;7.40;;;8.40;99.90;;;;;;5034749;28;20773;-57
2021/12/17 10:25:53;;;;;;;8.07;7.27;;;8.30;99.90;;;;;;5033867;28;20928;-57
2021/12/17 10:28:19;;;;;;;8.83;7.97;;;8.30;99.90;;;;;;5034870;28;20416;-58
2021/12/17 10:30:49;;;;;;;9.30;8.40;;;8.30;99.90;;;;;;5034082;28;20568;-58
2021/12/17 10:33:23;;;;;;;10.13;8.60;;;8.30;99.90;;;;;;5034467;28;20252;-56
2021/12/17 10:35:50;;;;;;;9.57;8.33;;;8.40;99.90;;;;;;5034363;28;20543;-58
2021/12/17 10:38:18;;;;;;;7.73;7.03;;;8.40;99.90;;;;;;5034560;28;20416;-58
2021/12/17 10:41:00;;;;;;;10.47;7.47;;;8.10;99.90;;;;;;5034398;28;20409;-58
2021/12/17 10:48:33;;;;;;;12.43;8.40;;;8.20;99.90;;;;;;5034450;28;20458;-56
2021/12/17 10:51:13;;;;;;;9.40;8.27;;;8.20;99.90;;;;;;5033963;28;20791;-58
2021/12/17 10:53:53;;;;;;;10.83;9.73;;;8.50;99.90;;;;;;5034228;28;20375;-58
2021/12/17 10:56:29;;;;;;;10.07;9.10;;;8.70;99.90;;;;;;5034195;28;20454;-58
2021/12/17 10:59:08;;;;;;;10.53;8.33;;;9.70;99.90;;;;;;5034136;28;20412;-58
2021/12/17 11:01:43;;;;;;;10.60;9.20;;;11.60;99.90;;;;;;5033975;28;20735;-59
2021/12/17 11:04:19;;;;;;;9.40;8.50;;;12.60;99.90;;;;;;5034018;28;20389;-58
2021/12/17 11:06:55;;;;;;;9.87;8.70;;;13.80;99.90;;;;;;5033467;28;20436;-58
2021/12/17 11:09:38;;;;;;;8.53;7.77;;;15.30;99.90;;;;;;5033865;28;20906;-59
2021/12/17 11:12:23;;;;;;;9.70;8.73;;;15.50;99.80;;;;;;5033893;28;20448;-58
2021/12/17 11:14:49;;;;;;;11.63;9.40;;;14.70;99.80;;;;;;5033468;28;20463;-56
2021/12/17 11:17:17;;;;;;;9.77;8.83;;;13.60;99.90;;;;;;5022141;28;20413;-58
2021/12/17 11:19:44;;;;;;;8.93;8.13;;;13.40;99.90;;;;;;5013865;28;20421;-55
2021/12/17 11:22:09;;;;;;;7.57;6.90;;;13.80;99.90;;;;;;5013381;28;20401;-54
2021/12/17 11:24:37;;;;;;;7.67;6.97;;;14.10;99.90;;;;;;5013702;28;20409;-58
2021/12/17 11:27:06;;;;;;;9.23;8.33;;;14.40;99.90;;;;;;5013696;28;20450;-58
2021/12/17 11:29:33;;;;;;;9.23;8.43;;;15.90;98.50;;;;;;5013911;28;20406;-58
2021/12/17 11:32:04;;;;;;;10.67;9.03;;;15.70;98.70;;;;;;5013599;28;20415;-57
2021/12/17 11:34:32;;;;;;;8.57;7.77;;;14.80;99.20;;;;;;5013502;28;20416;-57
2021/12/17 11:37:00;;;;;;;9.80;8.90;;;14.20;99.90;;;;;;5013288;28;20409;-58
2021/12/17 11:39:31;;;;;;;8.67;7.90;;;14.00;99.90;;;;;;5013679;28;20494;-58
2021/12/17 11:42:25;;;;;;;15.23;8.80;;;13.80;99.90;;;;;;5012538;28;20414;-59
2021/12/17 11:47:41;;;;;;;9.80;8.90;;;15.30;99.30;;;;;;5031794;28;20474;-59
2021/12/17 11:50:10;;;;;;;9.10;8.20;;;15.90;99.50;;;;;;5014041;28;20749;-58
2021/12/17 11:52:38;;;;;;;10.57;9.57;;;16.70;97.60;;;;;;5013323;28;20435;-57
2021/12/17 11:55:22;;;;;;;8.83;7.93;;;17.10;96.60;;;;;;5013372;28;20461;-55
2021/12/17 11:57:51;;;;;;;9.03;8.13;;;15.50;97.60;;;;;;5013268;28;20399;-57
2021/12/17 12:00:24;;;;;;;9.00;8.20;;;15.00;98.40;;;;;;5012981;28;20408;-58
2021/12/17 12:02:53;;;;;;;8.90;8.00;;;15.10;98.80;;;;;;5012962;28;20386;-58
2021/12/17 12:05:33;;;;;;;9.53;8.73;;;16.90;97.20;;;;;;5013114;28;20431;-56
2021/12/17 12:08:25;;;;;;;8.93;8.00;;;17.70;95.40;;;;;;5013287;28;20387;-58
2021/12/17 12:11:07;;;;;;;8.93;8.03;;;18.60;94.70;;;;;;5013939;28;20417;-57
2021/12/17 12:13:45;;;;;;;7.20;6.60;;;17.20;94.50;;;;;;5013372;28;20402;-58
2021/12/17 12:16:16;;;;;;;9.20;8.40;;;15.80;96.50;;;;;;5026308;28;20465;-58
2021/12/17 12:18:47;;;;;;;8.23;7.40;;;16.90;95.40;;;;;;5033094;28;20412;-58
2021/12/17 12:21:19;;;;;;;8.00;7.30;;;17.40;95.50;;;;;;5032937;28;20378;-56
2021/12/17 12:23:52;;;;;;;7.87;7.17;;;18.50;93.00;;;;;;5033061;28;20390;-58
2021/12/17 12:26:22;;;;;;;8.10;7.40;;;15.80;95.60;;;;;;5032786;28;20946;-59
2021/12/17 12:28:56;;;;;;;9.27;8.40;;;13.80;98.70;;;;;;5033152;28;20396;-58
2021/12/17 12:31:25;;;;;;;9.87;8.90;;;12.90;99.90;;;;;;5032553;28;20482;-58
2021/12/17 12:34:12;;;;;;;9.50;7.77;;;12.00;99.90;;;;;;5033127;28;20428;-58
2021/12/17 12:37:08;;;;;;;8.30;7.40;;;11.60;99.90;;;;;;5032575;28;20459;-57
2021/12/17 12:40:03;;;;;;;8.20;7.40;;;10.70;99.90;;;;;;5032482;28;20388;-58
2021/12/17 12:42:35;;;;;;;9.70;8.40;;;10.20;99.90;;;;;;5030506;28;20414;-55
2021/12/17 12:45:03;;;;;;;9.60;8.60;;;10.30;99.90;;;;;;5032472;28;20973;-56
2021/12/17 12:47:34;;;;;;;9.30;8.20;;;10.20;99.90;;;;;;5032645;28;20406;-56
2021/12/17 12:50:03;;;;;;;9.33;7.50;;;10.10;99.90;;;;;;5033124;28;20761;-58
2021/12/17 12:52:29;;;;;;;10.03;9.10;;;9.70;99.90;;;;;;5031232;28;20801;-58
2021/12/17 12:54:59;;;;;;;10.20;8.83;;;9.40;99.90;;;;;;5035652;28;20463;-58
2021/12/17 12:57:31;;;;;;;11.67;8.10;;;9.30;99.90;;;;;;5036238;28;20172;-57
2021/12/17 12:59:58;;;;;;;9.90;8.53;;;9.40;99.90;;;;;;5036421;28;20885;-57
2021/12/17 13:02:26;;;;;;;8.60;7.63;;;9.50;99.90;;;;;;5036285;28;20817;-58
2021/12/17 13:04:58;;;;;;;9.47;8.47;;;9.40;99.90;;;;;;5036473;28;20417;-56
2021/12/17 13:07:47;;;;;;;9.17;8.23;;;9.40;99.90;;;;;;5036231;28;20774;-52
2021/12/17 13:10:20;;;;;;;9.00;8.10;;;9.40;99.90;;;;;;5036453;28;20398;-57
2021/12/17 13:13:03;;;;;;;9.60;8.70;;;9.70;99.90;;;;;;5036795;28;20398;-56
2021/12/17 13:15:46;;;;;;;9.40;8.47;;;9.70;99.90;;;;;;5035487;28;20466;-57
2021/12/17 13:24:06;;;;;;;9.87;8.30;;;9.60;99.90;;;;;;5035851;28;20424;-58
2021/12/17 13:26:32;;;;;;;10.20;9.20;;;9.90;99.90;;;;;;5035697;28;20433;-59
2021/12/17 13:29:15;;;;;;;9.93;8.87;;;9.80;99.90;;;;;;5035670;28;20409;-58
2021/12/17 13:32:02;;;;;;;10.00;9.00;;;10.00;99.90;;;;;;5035603;28;20402;-59
2021/12/17 13:34:34;;;;;;;10.10;8.97;;;10.40;99.90;;;;;;5035794;28;20454;-58
2021/12/17 13:37:11;;;;;;;8.77;7.87;;;10.30;99.90;;;;;;5035438;28;20425;-59
2021/12/17 13:39:44;;;;;;;10.30;9.20;;;10.00;99.90;;;;;;5035654;28;20743;-57
2021/12/17 13:42:20;;;;;;;10.60;9.50;;;9.90;99.90;;;;;;5035783;28;20433;-57
2021/12/17 13:44:52;;;;;;;10.90;9.03;;;9.90;99.90;;;;;;5035422;28;20427;-57
2021/12/17 13:47:23;;;;;;;11.30;10.10;;;9.80;99.90;;;;;;5028580;28;20815;-58
2021/12/17 13:49:59;;;;;;;12.37;10.47;;;9.80;99.90;;;;;;5015971;28;20915;-58
2021/12/17 13:52:28;;;;;;;9.63;8.60;;;9.80;99.90;;;;;;5015453;28;20391;-58
2021/12/17 13:54:56;;;;;;;12.03;8.93;;;9.80;99.90;;;;;;5015272;28;20451;-56
2021/12/17 13:57:24;;;;;;;12.40;9.23;;;9.60;99.90;;;;;;5015483;28;20403;-57
2021/12/17 13:59:50;;;;;;;9.93;8.60;;;9.70;99.90;;;;;;5015763;28;20409;-57
2021/12/17 14:02:19;;;;;;;12.27;9.50;;;9.70;99.90;;;;;;5015178;28;20409;-58
2021/12/17 14:05:16;;;;;;;11.50;9.73;;;9.80;99.90;;;;;;5014918;28;20422;-57
2021/12/17 14:07:48;;;;;;;9.93;8.70;;;9.60;99.90;;;;;;5006651;28;20997;-58
2021/12/17 14:10:17;;;;;;;9.00;8.10;;;9.60;99.90;;;;;;5012131;28;20908;-55
2021/12/17 14:12:44;;;;;;;11.60;8.77;;;9.90;99.90;;;;;;5015069;28;20909;-58
2021/12/17 14:15:29;;;;;;;12.30;8.93;;;10.00;99.90;;;;;;5019881;28;20459;-58
2021/12/17 14:17:59;;;;;;;9.67;8.67;;;10.20;99.90;;;;;;5034837;28;20379;-58
2021/12/17 14:20:36;;;;;;;10.50;9.40;;;10.10;99.90;;;;;;5034838;28;20829;-58
2021/12/17 14:23:11;;;;;;;11.40;9.73;;;10.00;99.90;;;;;;5034927;28;20398;-57
2021/12/17 14:25:48;;;;;;;12.00;10.37;;;9.80;99.90;;;;;;5034965;28;20433;-58
2021/12/17 14:28:23;;;;;;;9.60;8.40;;;9.80;99.90;;;;;;5034836;28;20987;-58
2021/12/17 14:31:03;;;;;;;11.27;9.40;;;9.90;99.90;;;;;;5034833;28;20774;-57
2021/12/17 14:33:41;;;;;;;9.73;8.73;;;9.80;99.90;;;;;;5032333;28;20418;-59
2021/12/17 14:36:09;;;;;;;9.73;8.70;;;9.70;99.90;;;;;;5014109;28;20489;-59
2021/12/17 14:38:42;;;;;;;10.90;9.73;;;9.70;99.90;;;;;;5014575;28;20935;-58
2021/12/17 14:41:16;;;;;;;10.90;9.57;;;9.40;99.90;;;;;;5014700;28;20380;-56
2021/12/17 14:43:50;;;;;;;11.90;10.10;;;9.30;99.90;;;;;;5014471;28;20435;-58
2021/12/17 14:46:28;;;;;;;12.50;10.47;;;9.20;99.90;;;;;;5028305;28;20435;-59
2021/12/17 15:02:49;;;;;;;12.83;11.43;;;8.60;99.90;;;;;;5033775;28;20408;-57
2021/12/17 15:05:18;;;;;;;13.77;11.60;;;8.60;99.90;;;;;;5034587;28;20460;-57
2021/12/17 15:07:44;;;;;;;13.40;12.00;;;8.70;99.90;;;;;;5034134;28;20448;-56
2021/12/17 15:10:11;;;;;;;15.60;12.80;;;8.70;99.90;;;;;;5033965;28;20914;-59
2021/12/17 15:12:38;;;;;;;14.70;12.07;;;8.70;99.90;;;;;;5033800;28;20646;-55
2021/12/17 15:17:32;;;;;;;13.80;12.30;;;8.40;99.90;;;;;;5016705;22;20505;-55
2021/12/17 15:19:58;;;;;;;13.70;12.27;;;8.50;99.90;;;;;;4994086;28;20412;-56
2021/12/17 15:22:24;;;;;;;14.50;12.90;;;8.70;99.90;;;;;;4993991;28;20928;-57
2021/12/17 15:24:49;;;;;;;12.40;11.20;;;8.70;99.90;;;;;;4994706;28;20399;-54
2021/12/17 15:27:15;;;;;;;13.80;12.40;;;8.80;99.90;;;;;;4994389;28;20188;-57
2021/12/17 15:29:41;;;;;;;16.93;14.50;;;8.60;99.90;;;;;;4994953;28;20645;-57
2021/12/17 15:32:07;;;;;;;14.27;12.77;;;8.70;99.90;;;;;;4994372;28;20403;-58
2021/12/17 15:34:33;;;;;;;16.37;14.20;;;8.70;99.90;;;;;;4994733;28;20172;-58
2021/12/17 15:36:59;;;;;;;15.87;12.53;;;8.90;99.90;;;;;;4994352;28;20474;-57
2021/12/17 15:39:28;;;;;;;15.60;14.00;;;8.70;99.90;;;;;;4995095;28;20226;-58
2021/12/17 15:41:54;;;;;;;13.03;11.73;;;8.60;99.90;;;;;;4994423;28;20172;-54
2021/12/17 15:44:20;;;;;;;14.37;12.73;;;8.60;99.90;;;;;;4994325;28;20503;-56
2021/12/17 15:46:46;;;;;;;18.70;14.00;;;8.70;99.90;;;;;;4992831;28;20478;-56
2021/12/17 15:49:12;;;;;;;15.80;14.00;;;8.40;99.90;;;;;;4983541;28;20172;-58
2021/12/17 15:51:38;;;;;;;18.10;14.23;;;8.30;99.90;;;;;;4974903;28;20408;-55
2021/12/17 15:54:05;;;;;;;13.57;12.27;;;8.20;99.90;;;;;;4975153;28;20406;-58
2021/12/17 15:56:32;;;;;;;14.10;12.70;;;8.30;99.90;;;;;;4975357;28;20461;-58
2021/12/17 15:58:58;;;;;;;16.43;14.73;;;8.50;99.90;;;;;;4975036;28;20435;-57
2021/12/17 16:01:24;;;;;;;15.33;13.73;;;8.50;99.90;;;;;;4974617;28;20503;-59
2021/12/17 16:03:50;;;;;;;16.73;15.03;;;8.60;99.90;;;;;;4974707;28;20431;-60
2021/12/17 16:06:16;;;;;;;18.80;15.43;;;8.70;99.90;;;;;;4974595;28;20228;-58
2021/12/17 16:08:46;;;;;;;17.50;15.00;;;8.70;99.90;;;;;;4974964;28;20409;-59
2021/12/17 16:16:55;;;;;;;16.93;13.20;;;8.30;99.90;;;;;;4984671;28;20489;-56
2021/12/17 16:21:56;;;;;;;15.10;13.50;;;8.50;99.90;;;;;;4994340;28;20390;-53
2021/12/17 16:24:23;;;;;;;14.00;12.60;;;8.20;99.90;;;;;;4994682;28;20408;-58